Time;durP1;ratioP1;P1;durP2;ratioP2;P2;SDS_P1;SDS_P2;PMS_P1;PMS_P2;Temp;Humidity;BMP_temperature;BMP_pressure;BME280_temperature;BME280_humidity;BME280_pressure;Samples;Min_cycle;Max_cycle;Signal;HPM_P1;HPM_P2
2022/05/03 00:08:11;;;;;;;10.47;8.87;;;;;;;;;;5130843;22;20576;-94
2022/05/03 00:22:32;;;;;;;13.87;9.33;;;;;;;;;;5089832;28;20441;-92
2022/05/03 00:25:08;;;;;;;9.07;8.20;;;;;;;;;;5091925;28;20484;-93
2022/05/03 00:33:16;;;;;;;10.30;9.30;;;;;;;;;;5105578;22;20239;-92
2022/05/03 00:35:50;;;;;;;9.90;8.90;;;;;;;;;;5093211;28;20422;-93
2022/05/03 00:38:18;;;;;;;8.97;8.07;;;;;;;;;;5092009;28;20508;-94
2022/05/03 00:40:49;;;;;;;8.73;7.83;;;;;;;;;;5094636;28;20545;-93
2022/05/03 00:43:24;;;;;;;9.23;8.33;;;;;;;;;;5098158;22;20538;-93
2022/05/03 00:46:14;;;;;;;9.63;8.70;;;;;;;;;;5074735;28;20456;-93
2022/05/03 00:48:58;;;;;;;10.13;9.10;;;;;;;;;;5096634;22;20490;-93
2022/05/03 01:01:12;;;;;;;10.00;9.00;;;;;;;;;;5077790;28;20430;-94
2022/05/03 01:04:17;;;;;;;11.67;10.30;;;;;;;;;;5201980;22;20482;-92
2022/05/03 01:07:04;;;;;;;10.67;9.57;;;;;;;;;;5075377;28;20425;-93
2022/05/03 01:18:29;;;;;;;10.50;9.40;;;;;;;;;;5081344;22;20474;-93
2022/05/03 01:24:17;;;;;;;12.50;9.60;;;;;;;;;;5077308;28;20419;-93
2022/05/03 01:27:21;;;;;;;11.27;10.27;;;;;;;;;;5164166;22;20482;-93
2022/05/03 01:41:18;;;;;;;11.07;9.97;;;;;;;;;;5074904;28;20466;-93
2022/05/03 01:47:02;;;;;;;15.73;10.77;;;;;;;;;;5075151;28;20501;-93
2022/05/03 01:52:53;;;;;;;11.60;10.40;;;7.80;99.90;;;;;;5029641;28;20499;-93
2022/05/03 01:55:40;;;;;;;13.10;11.17;;;;;;;;;;5075080;28;20454;-93
2022/05/03 01:58:22;;;;;;;13.10;10.67;;;;;;;;;;5046492;28;20482;-94
2022/05/03 02:03:52;;;;;;;14.57;10.90;;;;;;;;;;5073690;28;20701;-94
2022/05/03 02:06:45;;;;;;;18.57;12.70;;;;;;;;;;5116172;22;20421;-94
2022/05/03 02:09:30;;;;;;;11.37;10.27;;;;;;;;;;5074614;28;20455;-94
2022/05/03 02:12:14;;;;;;;11.97;10.77;;;;;;;;;;5077766;28;20484;-95
2022/05/03 02:21:10;;;;;;;11.80;10.47;;;;;;;;;;5013619;28;20465;-93
2022/05/03 02:26:37;;;;;;;14.00;12.50;;;;;;;;;;5093904;22;20465;-94
2022/05/03 02:29:23;;;;;;;14.00;11.73;;;;;;;;;;5094946;28;20465;-93
2022/05/03 02:35:15;;;;;;;12.60;11.30;;;;;;;;;;5155589;22;20493;-94
2022/05/03 02:43:38;;;;;;;14.43;12.53;;;;;;;;;;5029493;28;20445;-93
2022/05/03 02:48:41;;;;;;;14.93;13.37;;;;;;;;;;5089405;22;20505;-93
2022/05/03 02:54:07;;;;;;;13.77;11.97;;;;;;;;;;5065622;28;20442;-93
2022/05/03 02:56:46;;;;;;;14.93;13.33;;;;;;;;;;5034548;28;20461;-94
2022/05/03 03:02:39;;;;;;;17.63;12.63;;;;;;;;;;5047523;28;20507;-94
2022/05/03 03:05:21;;;;;;;14.90;13.30;;;;;;;;;;5057147;22;20508;-92
2022/05/03 03:07:55;;;;;;;15.50;13.90;;;;;;;;;;5067654;28;20458;-93
2022/05/03 03:10:43;;;;;;;16.97;14.80;;;;;;;;;;5065647;28;20525;-92
2022/05/03 03:13:38;;;;;;;18.30;13.53;;;;;;;;;;5034615;28;20447;-92
2022/05/03 03:16:17;;;;;;;16.83;13.07;;;;;;;;;;5070143;28;20446;-93
2022/05/03 03:18:57;;;;;;;15.67;14.17;;;;;;;;;;5070087;28;20474;-94
2022/05/03 03:21:33;;;;;;;15.60;14.00;;;7.10;99.90;;;;;;5048113;28;20483;-93
2022/05/03 03:24:13;;;;;;;16.93;15.17;;;7.10;99.90;;;;;;5043412;28;20912;-93
2022/05/03 03:26:45;;;;;;;15.70;14.00;;;;;;;;;;5045981;28;20490;-93
2022/05/03 03:29:16;;;;;;;16.60;14.80;;;;;;;;;;5045531;28;20456;-93
2022/05/03 03:34:41;;;;;;;17.00;15.10;;;;;;;;;;4987279;28;20537;-93
2022/05/03 03:39:54;;;;;;;16.37;14.67;;;;;;;;;;4985834;28;20465;-93
2022/05/03 03:45:15;;;;;;;17.20;15.00;;;;;;;;;;5087974;28;20929;-92
2022/05/03 03:54:16;;;;;;;16.63;14.83;;;;;;;;;;5098121;28;20452;-92
2022/05/03 03:57:11;;;;;;;16.00;14.23;;;;;;;;;;5089010;28;20438;-93
2022/05/03 03:59:51;;;;;;;18.93;15.17;;;;;;;;;;5088645;28;20508;-93
2022/05/03 04:02:24;;;;;;;18.20;14.50;;;;;;;;;;5052736;28;20532;-93
2022/05/03 04:04:54;;;;;;;20.50;14.97;;;;;;;;;;5084305;28;20942;-92
2022/05/03 04:07:21;;;;;;;18.40;16.47;;;;;;;;;;5085435;28;20480;-94
2022/05/03 04:10:09;;;;;;;18.50;15.43;;;;;;;;;;5088005;28;20456;-94
2022/05/03 04:21:24;;;;;;;16.43;14.60;;;;;;;;;;5111121;28;20487;-93
2022/05/03 04:27:05;;;;;;;17.67;14.47;;;;;;;;;;5111109;28;20421;-95
2022/05/03 04:32:49;;;;;;;15.83;14.17;;;;;;;;;;5116141;28;20424;-93
2022/05/03 04:35:20;;;;;;;16.10;14.43;;;;;;;;;;5073228;28;20465;-94
2022/05/03 04:43:48;;;;;;;19.33;14.53;;;;;;;;;;5044428;28;20439;-93
2022/05/03 04:49:18;;;;;;;18.10;15.60;;;;;;;;;;5047179;28;20447;-95
2022/05/03 04:54:38;;;;;;;18.60;14.20;;;;;;;;;;5089221;28;20430;-93
2022/05/03 04:57:39;;;;;;;18.13;14.57;;;;;;;;;;5073300;28;20461;-94
2022/05/03 05:03:20;;;;;;;17.40;14.80;;;;;;;;;;5073103;28;20530;-94
2022/05/03 05:06:08;;;;;;;17.13;14.90;;;;;;;;;;5075655;28;20526;-94
2022/05/03 05:14:29;;;;;;;17.20;15.20;;;;;;;;;;5089294;28;20446;-94
2022/05/03 05:16:58;;;;;;;16.87;15.10;;;;;;;;;;5039764;28;20449;-94
2022/05/03 05:22:12;;;;;;;19.40;16.03;;;;;;;;;;5091028;28;20440;-94
2022/05/03 05:27:29;;;;;;;19.23;14.73;;;;;;;;;;5086779;28;20453;-93
2022/05/03 05:30:07;;;;;;;18.57;16.67;;;;;;;;;;5088852;28;20452;-94
2022/05/03 05:32:35;;;;;;;16.73;15.07;;;;;;;;;;5087530;28;20438;-93
2022/05/03 05:35:04;;;;;;;17.23;14.80;;;;;;;;;;5088479;28;20502;-93
2022/05/03 05:37:36;;;;;;;18.13;14.10;;;;;;;;;;5090219;28;20426;-94
2022/05/03 05:40:05;;;;;;;15.17;13.67;;;;;;;;;;5085557;28;20490;-94
2022/05/03 05:42:37;;;;;;;15.77;14.23;;;;;;;;;;5084767;28;20434;-92
2022/05/03 05:45:04;;;;;;;20.83;14.23;;;;;;;;;;5084793;28;20446;-93
2022/05/03 05:47:32;;;;;;;14.47;12.93;;;;;;;;;;5082440;28;21000;-93
2022/05/03 05:49:59;;;;;;;17.30;14.00;;;;;;;;;;5081706;28;20449;-96
2022/05/03 05:55:23;;;;;;;14.47;13.07;;;;;;;;;;5084178;28;20428;-93
2022/05/03 05:57:58;;;;;;;14.40;12.93;;;;;;;;;;5048271;28;20442;-94
2022/05/03 06:00:28;;;;;;;13.27;11.80;;;;;;;;;;5088077;28;20541;-94
2022/05/03 06:03:01;;;;;;;15.90;13.57;;;;;;;;;;5125121;22;20833;-92
2022/05/03 06:05:31;;;;;;;13.07;11.83;;;;;;;;;;5084684;28;20781;-93
2022/05/03 06:07:58;;;;;;;15.43;12.10;;;;;;;;;;5084369;28;20458;-94
2022/05/03 06:10:28;;;;;;;15.03;11.70;;;;;;;;;;5082684;28;20501;-92
2022/05/03 06:13:00;;;;;;;17.20;12.47;;;13.90;99.90;;;;;;5108176;22;20477;-92
2022/05/03 06:15:31;;;;;;;12.70;11.50;;;;;;;;;;5046537;28;20536;-93
2022/05/03 06:18:11;;;;;;;11.80;10.80;;;;;;;;;;5049136;28;20434;-93
2022/05/03 06:20:38;;;;;;;12.90;11.70;;;;;;;;;;5083088;28;20445;-92
2022/05/03 06:23:06;;;;;;;11.20;10.20;;;;;;;;;;5078345;28;20450;-93
2022/05/03 06:25:34;;;;;;;12.20;10.87;;;;;;;;;;5076926;28;20952;-93
2022/05/03 06:28:01;;;;;;;11.40;10.50;;;;;;;;;;5089479;28;20429;-94
2022/05/03 06:30:30;;;;;;;13.80;12.37;;;;;;;;;;5094268;28;20467;-94
2022/05/03 06:32:59;;;;;;;12.33;11.23;;;;;;;;;;5074566;28;20442;-94
2022/05/03 06:35:35;;;;;;;11.43;10.23;;;;;;;;;;5077329;28;20434;-93
2022/05/03 06:38:02;;;;;;;11.20;10.00;;;;;;;;;;5079905;28;20463;-94
2022/05/03 06:40:30;;;;;;;10.50;9.10;;;;;;;;;;5079240;28;21441;-93
2022/05/03 06:43:01;;;;;;;10.77;9.80;;;;;;;;;;5081198;28;20454;-94
2022/05/03 06:48:17;;;;;;;11.43;9.83;;;;;;;;;;5090142;28;20469;-93
2022/05/03 06:50:50;;;;;;;10.33;9.30;;;;;;;;;;5088147;28;20457;-94
2022/05/03 06:56:44;;;;;;;10.93;9.93;;;;;;;;;;5089815;28;20520;-95
2022/05/03 06:59:18;;;;;;;10.43;9.50;;;;;;;;;;5091964;28;20477;-92
2022/05/03 07:01:48;;;;;;;11.00;9.90;;;;;;;;;;5084085;28;20471;-93
2022/05/03 07:04:16;;;;;;;14.00;10.50;;;;;;;;;;5081256;28;20469;-92
2022/05/03 07:06:43;;;;;;;12.73;10.53;;;;;;;;;;5076270;28;20454;-93
2022/05/03 07:09:10;;;;;;;11.17;10.00;;;;;;;;;;5075853;28;20425;-92
2022/05/03 07:11:37;;;;;;;10.67;9.50;;;;;;;;;;5075513;28;20459;-93
2022/05/03 07:14:04;;;;;;;10.37;9.37;;;;;;;;;;5073296;28;20452;-93
2022/05/03 07:16:33;;;;;;;14.00;10.40;;;17.80;99.90;;;;;;5075870;28;20484;-92
2022/05/03 07:24:29;;;;;;;10.50;9.60;;;;;;;;;;5096633;28;20419;-94
2022/05/03 07:26:57;;;;;;;10.17;9.30;;;;;;;;;;5094845;28;20436;-92
2022/05/03 07:29:24;;;;;;;10.40;9.40;;;;;;;;;;5076424;28;20922;-91
2022/05/03 07:31:53;;;;;;;9.90;9.00;;;;;;;;;;5075509;28;20441;-94
2022/05/03 07:34:22;;;;;;;10.90;10.00;;;;;;;;;;5073124;28;20456;-93
2022/05/03 07:36:49;;;;;;;12.20;10.97;;;;;;;;;;5075301;28;20437;-92
2022/05/03 07:39:16;;;;;;;10.90;9.90;;;;;;;;;;5075683;28;20501;-93
2022/05/03 07:41:43;;;;;;;11.50;10.50;;;;;;;;;;5073292;28;20458;-95
2022/05/03 07:44:10;;;;;;;10.20;9.30;;;;;;;;;;5075289;28;20450;-92
2022/05/03 07:46:37;;;;;;;10.43;9.53;;;;;;;;;;5096014;28;20445;-94
2022/05/03 07:49:06;;;;;;;10.80;9.90;;;19.50;99.80;;;;;;5095983;28;20449;-93
2022/05/03 07:51:34;;;;;;;10.63;9.60;;;;;;;;;;5095816;28;20457;-95
2022/05/03 07:54:01;;;;;;;9.70;8.80;;;;;;;;;;5090106;28;20460;-93
2022/05/03 07:56:28;;;;;;;19.63;9.03;;;;;;;;;;5097092;28;20937;-92
2022/05/03 07:58:55;;;;;;;10.33;9.53;;;;;;;;;;5095904;28;20818;-93
2022/05/03 08:01:22;;;;;;;9.90;9.10;;;;;;;;;;5101979;28;20430;-92
2022/05/03 08:03:50;;;;;;;10.93;9.83;;;22.10;93.10;;;;;;5111579;28;20461;-91
2022/05/03 08:06:18;;;;;;;10.77;9.87;;;21.30;94.20;;;;;;5103883;28;20449;-92
2022/05/03 08:08:45;;;;;;;11.10;10.20;;;;;;;;;;5091365;28;20460;-93
2022/05/03 08:11:12;;;;;;;11.03;10.03;;;;;;;;;;5096938;28;20502;-93
2022/05/03 08:13:48;;;;;;;11.60;9.77;;;;;;;;;;5099882;28;20476;-92
2022/05/03 08:16:21;;;;;;;10.97;10.07;;;;;;;;;;5098618;28;20856;-94
2022/05/03 08:18:48;;;;;;;11.80;10.47;;;;;;;;;;5102319;28;20478;-92
2022/05/03 08:21:16;;;;;;;11.73;10.83;;;;;;;;;;5101400;28;20456;-94
2022/05/03 08:23:44;;;;;;;9.57;8.87;;;21.20;95.90;;;;;;5103264;28;20901;-92
2022/05/03 08:26:13;;;;;;;9.60;8.60;;;;;;;;;;5097576;28;20460;-92
2022/05/03 08:28:41;;;;;;;9.10;8.20;;;;;;;;;;5105882;28;20474;-95
2022/05/03 08:31:19;;;;;;;8.77;8.00;;;;;;;;;;5102484;28;20462;-94
2022/05/03 08:33:47;;;;;;;8.10;6.80;;;;;;;;;;5109859;28;20796;-93
2022/05/03 08:36:14;;;;;;;7.30;6.70;;;;;;;;;;5101056;28;20455;-92
2022/05/03 08:44:16;;;;;;;7.33;6.70;;;19.70;94.80;;;;;;5090945;28;20944;-92
2022/05/03 08:46:44;;;;;;;6.27;5.77;;;;;;;;;;5077439;28;20766;-93
2022/05/03 08:49:14;;;;;;;5.60;5.10;;;21.90;93.20;;;;;;5081891;28;20463;-94
2022/05/03 08:51:41;;;;;;;5.33;4.83;;;;;;;;;;5076910;28;20445;-93
2022/05/03 08:54:09;;;;;;;5.17;4.77;;;;;;;;;;5075297;28;20447;-93
2022/05/03 08:56:38;;;;;;;6.90;4.80;;;;;;;;;;5075019;28;20441;-93
2022/05/03 08:59:05;;;;;;;6.30;5.30;;;;;;;;;;5076265;28;20484;-94
2022/05/03 09:01:32;;;;;;;5.93;4.53;;;;;;;;;;5073540;28;20937;-91
2022/05/03 09:04:00;;;;;;;4.80;4.50;;;;;;;;;;5078564;28;20812;-91
2022/05/03 09:06:41;;;;;;;4.20;3.90;;;23.00;84.70;;;;;;5075632;28;20897;-93
2022/05/03 09:09:11;;;;;;;5.17;4.30;;;22.30;81.20;;;;;;5073540;28;20450;-91
2022/05/03 09:11:46;;;;;;;3.10;2.90;;;22.90;84.00;;;;;;5077717;28;20446;-88
2022/05/03 09:14:13;;;;;;;5.23;4.80;;;;;;;;;;5076331;28;20453;-88
2022/05/03 09:16:48;;;;;;;6.20;5.63;;;23.40;82.20;;;;;;5076631;28;20469;-90
2022/05/03 09:19:24;;;;;;;6.17;5.67;;;23.20;82.60;;;;;;5076087;28;20538;-89
2022/05/03 09:24:52;;;;;;;6.67;6.17;;;23.00;81.80;;;;;;5077150;28;20516;-92
2022/05/03 09:27:21;;;;;;;7.90;6.47;;;23.20;79.20;;;;;;5077521;28;20442;-90
2022/05/03 09:30:02;;;;;;;5.80;5.30;;;22.00;99.90;;;;;;5072272;28;20458;-90
2022/05/03 09:32:36;;;;;;;6.27;5.27;;;22.50;87.50;;;;;;5078249;28;20441;-93
2022/05/03 09:35:04;;;;;;;6.00;5.50;;;22.00;85.70;;;;;;5072100;28;20449;-92
2022/05/03 09:37:42;;;;;;;6.17;5.37;;;23.20;87.00;;;;;;5077495;28;20544;-91
2022/05/03 09:40:12;;;;;;;4.90;4.50;;;24.00;82.90;;;;;;5076623;28;20531;-93
2022/05/03 09:42:42;;;;;;;4.60;4.30;;;;;;;;;;5078154;28;20528;-91
2022/05/03 09:45:10;;;;;;;5.00;4.50;;;;;;;;;;5078763;28;20484;-91
2022/05/03 09:47:51;;;;;;;7.00;5.67;;;24.30;74.90;;;;;;5086861;28;20811;-95
2022/05/03 09:50:52;;;;;;;6.27;5.77;;;23.30;78.10;;;;;;5087238;28;20469;-93
2022/05/03 09:53:21;;;;;;;6.00;5.50;;;22.20;81.90;;;;;;5032491;28;20444;-94
2022/05/03 10:01:34;;;;;;;5.90;4.23;;;23.80;79.40;;;;;;5039404;22;20554;-96
2022/05/03 10:04:16;;;;;;;4.07;3.77;;;24.50;81.50;;;;;;5053278;28;20458;-93
2022/05/03 10:09:34;;;;;;;4.40;4.10;;;24.90;77.70;;;;;;5072599;28;20458;-94
2022/05/03 10:12:09;;;;;;;4.70;3.40;;;24.90;77.80;;;;;;5069026;28;20453;-95
2022/05/03 10:14:38;;;;;;;4.50;4.10;;;;;;;;;;5007748;28;20795;-93
2022/05/03 10:23:04;;;;;;;3.97;3.67;;;;;;;;;;5003272;28;20465;-96
2022/05/03 10:25:31;;;;;;;3.93;3.63;;;;;;;;;;5003855;28;20457;-92
2022/05/03 10:28:02;;;;;;;4.00;3.70;;;24.70;76.40;;;;;;5007512;28;20826;-94
2022/05/03 10:30:40;;;;;;;4.00;3.70;;;25.20;73.40;;;;;;5007506;28;20481;-95
2022/05/03 10:33:41;;;;;;;4.80;4.10;;;25.00;72.00;;;;;;5034579;22;20474;-94
2022/05/03 10:39:12;;;;;;;5.13;4.73;;;23.80;75.60;;;;;;5189788;22;20493;-94
2022/05/03 10:41:53;;;;;;;4.00;3.70;;;;;;;;;;5097785;22;20517;-93
2022/05/03 10:44:44;;;;;;;5.10;4.50;;;24.00;70.30;;;;;;5048202;28;20513;-94
2022/05/03 10:47:15;;;;;;;6.17;5.57;;;24.20;70.00;;;;;;5046061;28;20465;-93
2022/05/03 10:50:21;;;;;;;6.00;4.60;;;24.90;69.60;;;;;;5043469;28;20455;-93
2022/05/03 10:53:27;;;;;;;5.50;5.00;;;24.00;69.70;;;;;;5042304;28;20449;-94
2022/05/03 10:56:17;;;;;;;5.80;5.20;;;24.10;69.80;;;;;;5051768;22;20482;-91
2022/05/03 10:59:12;;;;;;;5.60;5.10;;;24.10;71.20;;;;;;5063786;22;20498;-93
2022/05/03 11:02:19;;;;;;;6.10;5.60;;;23.70;77.80;;;;;;5069341;22;20554;-95
2022/05/03 11:05:16;;;;;;;5.67;4.87;;;23.30;74.10;;;;;;5072077;22;20446;-94
2022/05/03 11:08:22;;;;;;;9.60;4.80;;;23.50;69.60;;;;;;5074132;22;20486;-93
2022/05/03 11:10:55;;;;;;;5.63;5.10;;;;;;;;;;4919277;29;20469;-92
2022/05/03 11:13:39;;;;;;;5.70;5.20;;;;;;;;;;4952143;29;20610;-93
2022/05/03 11:16:26;;;;;;;14.27;13.00;;;;;;;;;;4956398;29;20455;-92
2022/05/03 11:18:53;;;;;;;7.83;7.17;;;;;;;;;;4957280;29;20455;-92
2022/05/03 11:21:20;;;;;;;9.50;8.50;;;;;;;;;;4960996;28;20526;-93
2022/05/03 11:23:50;;;;;;;5.40;5.00;;;;;;;;;;4958652;29;20451;-91
2022/05/03 11:26:19;;;;;;;5.13;4.20;;;23.30;68.60;;;;;;4957494;29;20447;-91
2022/05/03 11:28:47;;;;;;;5.30;4.90;;;22.70;70.00;;;;;;4957546;29;20478;-90
2022/05/03 11:31:17;;;;;;;10.70;4.40;;;22.60;70.50;;;;;;4964675;29;20459;-92
2022/05/03 11:33:52;;;;;;;4.80;4.40;;;22.30;70.20;;;;;;4968100;29;20483;-89
2022/05/03 11:36:20;;;;;;;4.43;4.10;;;;;;;;;;4965811;28;20810;-91
2022/05/03 11:38:49;;;;;;;4.93;4.53;;;23.30;66.60;;;;;;4962855;28;20447;-94
2022/05/03 11:41:16;;;;;;;4.53;4.13;;;;;;;;;;4961062;29;20550;-90
2022/05/03 11:43:47;;;;;;;5.07;4.57;;;;;;;;;;4961866;29;20451;-92
2022/05/03 11:46:15;;;;;;;4.83;4.00;;;24.20;70.40;;;;;;4960761;29;20833;-90
2022/05/03 11:48:50;;;;;;;4.43;4.03;;;24.90;78.60;;;;;;4962937;29;20451;-94
2022/05/03 11:56:58;;;;;;;4.43;4.03;;;;;;;;;;4881012;29;20449;-92
2022/05/03 11:59:28;;;;;;;5.53;4.47;;;22.90;68.10;;;;;;4941918;29;20540;-93
2022/05/03 12:02:13;;;;;;;5.30;4.77;;;22.60;67.60;;;;;;4961099;28;20497;-95
2022/05/03 12:04:40;;;;;;;4.43;4.00;;;;;;;;;;4958566;28;20447;-89
2022/05/03 12:07:07;;;;;;;4.67;4.20;;;;;;;;;;4957929;29;20547;-90
2022/05/03 12:09:36;;;;;;;4.60;4.20;;;24.10;64.20;;;;;;4975341;28;20489;-92
2022/05/03 12:14:49;;;;;;;4.80;4.20;;;24.30;64.90;;;;;;4981994;28;20441;-92
2022/05/03 12:17:18;;;;;;;4.43;4.03;;;;;;;;;;4975379;28;20883;-90
2022/05/03 12:19:45;;;;;;;3.97;3.67;;;;;;;;;;4978132;28;20446;-93
2022/05/03 12:22:15;;;;;;;4.80;3.70;;;24.00;65.70;;;;;;4983045;28;20474;-93
2022/05/03 12:24:43;;;;;;;5.13;4.60;;;;;;;;;;4983528;28;20457;-90
2022/05/03 12:27:11;;;;;;;4.07;3.70;;;24.30;65.00;;;;;;4976893;28;20793;-92
2022/05/03 12:29:43;;;;;;;4.40;4.00;;;24.90;65.80;;;;;;4989833;28;20434;-91
2022/05/03 12:32:18;;;;;;;4.50;4.10;;;;;;;;;;4993271;28;20439;-94
2022/05/03 12:34:57;;;;;;;5.70;4.30;;;24.60;61.80;;;;;;4983148;28;20457;-92
2022/05/03 12:37:25;;;;;;;4.97;4.57;;;;;;;;;;4989885;28;20454;-91
2022/05/03 12:39:52;;;;;;;5.37;4.87;;;;;;;;;;4991128;28;20465;-91
2022/05/03 12:42:20;;;;;;;6.13;5.43;;;24.40;75.10;;;;;;4984617;28;20442;-92
2022/05/03 12:44:49;;;;;;;6.40;5.90;;;23.80;75.90;;;;;;4990764;28;20879;-95
2022/05/03 12:47:18;;;;;;;6.10;5.60;;;;;;;;;;4993795;28;20415;-91
2022/05/03 12:49:45;;;;;;;7.50;5.70;;;;;;;;;;4996919;28;20439;-92
2022/05/03 12:52:13;;;;;;;4.27;3.87;;;;;;;;;;4989853;28;20437;-91
2022/05/03 12:54:40;;;;;;;5.30;4.17;;;;;;;;;;4984904;28;20521;-91
2022/05/03 12:59:54;;;;;;;7.57;3.30;;;;;;;;;;4984862;28;20457;-92
2022/05/03 13:02:22;;;;;;;3.83;3.43;;;;;;;;;;4984649;28;20482;-90
2022/05/03 13:04:49;;;;;;;2.60;2.40;;;;;;;;;;4982045;28;20436;-94
2022/05/03 13:07:16;;;;;;;3.70;2.30;;;;;;;;;;4982466;28;20442;-92
2022/05/03 13:09:43;;;;;;;3.40;2.90;;;;;;;;;;4982891;28;20486;-93
2022/05/03 13:12:12;;;;;;;4.30;2.90;;;17.20;92.20;;;;;;4985958;28;20453;-90
2022/05/03 13:14:40;;;;;;;7.23;3.30;;;;;;;;;;4980221;28;20469;-94
2022/05/03 13:17:07;;;;;;;3.43;3.13;;;;;;;;;;4982424;28;20453;-93
2022/05/03 13:19:35;;;;;;;4.33;3.63;;;15.90;99.90;;;;;;4986464;28;20474;-91
2022/05/03 13:22:02;;;;;;;6.87;4.17;;;;;;;;;;4987402;28;20489;-93
2022/05/03 13:24:30;;;;;;;7.97;4.73;;;;;;;;;;5000808;28;20457;-92
2022/05/03 13:27:06;;;;;;;3.70;3.40;;;15.00;99.90;;;;;;5003354;28;20478;-93
2022/05/03 13:29:33;;;;;;;6.93;4.97;;;;;;;;;;5001345;28;20511;-94
2022/05/03 13:32:02;;;;;;;8.00;4.00;;;;;;;;;;5001075;28;20453;-93
2022/05/03 13:34:29;;;;;;;5.30;4.40;;;;;;;;;;5002485;28;20484;-93
2022/05/03 13:42:28;;;;;;;5.37;3.70;;;14.30;99.90;;;;;;5007359;28;20488;-95
2022/05/03 13:44:56;;;;;;;6.10;4.00;;;;;;;;;;5003950;28;20868;-94
2022/05/03 13:47:23;;;;;;;10.67;4.30;;;;;;;;;;5001624;28;20441;-93
2022/05/03 13:49:50;;;;;;;6.50;4.47;;;;;;;;;;4977434;28;20454;-93
2022/05/03 13:52:20;;;;;;;9.43;3.87;;;14.10;99.90;;;;;;4979238;28;20446;-92
2022/05/03 13:54:48;;;;;;;9.53;4.70;;;;;;;;;;4986743;28;20935;-94
2022/05/03 13:57:15;;;;;;;6.17;4.70;;;;;;;;;;4979086;28;20923;-93
2022/05/03 13:59:42;;;;;;;6.80;4.43;;;;;;;;;;4978398;28;20482;-94
2022/05/03 14:02:12;;;;;;;5.03;4.23;;;14.40;99.90;;;;;;4980542;28;20545;-94
2022/05/03 14:04:40;;;;;;;6.40;4.67;;;;;;;;;;4977813;28;20464;-90
2022/05/03 14:07:08;;;;;;;6.40;5.10;;;;;;;;;;4978324;28;20512;-91
2022/05/03 14:09:37;;;;;;;7.97;5.00;;;14.20;99.90;;;;;;4974904;28;21087;-91
2022/05/03 14:12:10;;;;;;;5.40;4.90;;;14.10;99.90;;;;;;4977256;28;20422;-92
2022/05/03 14:14:37;;;;;;;4.87;4.20;;;;;;;;;;4978914;28;20958;-91
2022/05/03 14:17:05;;;;;;;7.77;4.83;;;;;;;;;;4978749;28;20480;-94
2022/05/03 14:19:32;;;;;;;10.80;5.50;;;;;;;;;;4974711;28;20462;-92
2022/05/03 14:21:59;;;;;;;6.13;4.90;;;;;;;;;;4976163;28;20501;-91
2022/05/03 14:24:26;;;;;;;6.97;5.70;;;;;;;;;;4976568;28;20978;-91
2022/05/03 14:26:55;;;;;;;6.60;5.77;;;;;;;;;;4977039;28;20473;-92
2022/05/03 14:29:22;;;;;;;7.60;5.57;;;;;;;;;;4973762;28;20462;-92
2022/05/03 14:31:50;;;;;;;8.73;6.63;;;;;;;;;;4976704;28;20465;-92
2022/05/03 14:34:18;;;;;;;5.20;4.70;;;;;;;;;;4974105;28;20454;-92
2022/05/03 14:36:45;;;;;;;9.90;5.47;;;;;;;;;;4977474;28;20808;-94
2022/05/03 14:39:12;;;;;;;8.90;5.67;;;;;;;;;;4978701;28;20486;-92
2022/05/03 14:41:46;;;;;;;7.40;5.70;;;;;;;;;;4974877;28;21024;-91
2022/05/03 14:44:14;;;;;;;5.70;4.97;;;14.40;99.90;;;;;;4973941;28;20446;-93
2022/05/03 14:46:41;;;;;;;5.57;5.07;;;;;;;;;;4977703;28;20454;-93
2022/05/03 14:49:09;;;;;;;10.93;7.40;;;;;;;;;;4978601;28;20506;-95
2022/05/03 14:51:37;;;;;;;10.03;6.30;;;;;;;;;;4978629;28;20458;-91
2022/05/03 14:54:08;;;;;;;8.90;6.07;;;14.40;99.90;;;;;;4979449;28;20435;-93
2022/05/03 15:05:00;;;;;;;3.53;3.23;;;;;;;;;;4982352;28;20497;-93
2022/05/03 15:07:27;;;;;;;5.93;3.53;;;;;;;;;;4979881;28;20481;-92
2022/05/03 15:09:55;;;;;;;4.10;2.87;;;;;;;;;;4982939;28;20834;-93
2022/05/03 15:12:23;;;;;;;8.30;7.27;;;;;;;;;;4982969;28;20549;-94
2022/05/03 15:14:54;;;;;;;3.90;2.80;;;;;;;;;;4983165;28;20454;-93
2022/05/03 15:17:21;;;;;;;4.70;3.07;;;;;;;;;;4981113;28;20489;-92
2022/05/03 15:19:49;;;;;;;4.13;2.90;;;;;;;;;;4979816;28;20458;-92
2022/05/03 15:22:17;;;;;;;3.40;2.97;;;;;;;;;;4981707;28;20498;-94
2022/05/03 15:24:43;;;;;;;6.37;3.10;;;;;;;;;;4983202;28;20455;-94
2022/05/03 15:27:11;;;;;;;5.80;3.30;;;;;;;;;;4980076;28;20466;-93
2022/05/03 15:29:44;;;;;;;3.27;2.97;;;;;;;;;;4981043;28;20494;-95
2022/05/03 15:32:37;;;;;;;4.83;3.70;;;;;;;;;;4949645;28;20458;-94
2022/05/03 15:37:48;;;;;;;6.17;3.60;;;;;;;;;;4983404;28;20449;-94
2022/05/03 15:40:16;;;;;;;5.83;3.77;;;;;;;;;;4980082;28;20445;-93
2022/05/03 15:42:44;;;;;;;5.03;4.20;;;;;;;;;;4974861;28;20496;-93
2022/05/03 15:45:17;;;;;;;10.47;4.07;;;;;;;;;;4977389;28;20874;-94
2022/05/03 15:47:47;;;;;;;12.30;4.53;;;;;;;;;;4977154;28;20458;-93
2022/05/03 15:50:17;;;;;;;5.63;4.40;;;14.90;99.90;;;;;;4976583;28;20522;-92
2022/05/03 15:52:48;;;;;;;5.47;5.00;;;14.80;99.90;;;;;;4970305;28;20469;-92
2022/05/03 15:55:15;;;;;;;5.80;4.73;;;;;;;;;;4976048;28;20461;-92
2022/05/03 15:57:43;;;;;;;7.80;5.20;;;;;;;;;;4976357;28;20456;-92
2022/05/03 16:00:13;;;;;;;5.00;4.50;;;15.10;99.90;;;;;;4973223;28;20438;-92
2022/05/03 16:02:41;;;;;;;6.07;4.30;;;;;;;;;;4979366;28;20488;-92
2022/05/03 16:05:13;;;;;;;7.70;5.43;;;15.00;99.90;;;;;;4983367;28;20454;-93
2022/05/03 16:07:41;;;;;;;8.57;4.80;;;;;;;;;;4974314;28;20500;-92
2022/05/03 16:10:09;;;;;;;5.77;4.50;;;15.10;99.90;;;;;;4975780;28;20482;-92
2022/05/03 16:12:36;;;;;;;4.57;4.00;;;;;;;;;;4974082;28;20484;-92
2022/05/03 16:15:04;;;;;;;9.57;5.00;;;;;;;;;;4977889;28;20451;-92
2022/05/03 16:17:32;;;;;;;5.60;3.90;;;;;;;;;;4978315;28;20445;-93
2022/05/03 16:20:02;;;;;;;4.70;4.13;;;;;;;;;;4977013;28;20458;-92
2022/05/03 16:22:31;;;;;;;6.77;4.37;;;15.30;99.90;;;;;;4976847;28;20480;-90
2022/05/03 16:24:59;;;;;;;4.50;4.10;;;15.60;99.90;;;;;;4988063;28;20446;-92
2022/05/03 16:27:26;;;;;;;5.87;4.20;;;;;;;;;;4989046;28;20521;-93
2022/05/03 16:29:54;;;;;;;5.43;4.80;;;;;;;;;;4990626;28;20536;-92
2022/05/03 16:32:28;;;;;;;6.67;4.37;;;16.10;99.90;;;;;;4987126;28;20458;-91
2022/05/03 16:34:55;;;;;;;7.17;5.13;;;;;;;;;;4985448;28;20930;-94
2022/05/03 16:42:54;;;;;;;5.97;5.40;;;;;;;;;;4985270;28;20496;-92
2022/05/03 16:45:22;;;;;;;6.03;5.53;;;;;;;;;;4982420;28;20495;-93
2022/05/03 16:47:52;;;;;;;5.80;5.30;;;;;;;;;;4981987;28;20454;-92
2022/05/03 16:50:21;;;;;;;7.43;5.60;;;15.50;99.90;;;;;;4984963;28;20462;-91
2022/05/03 16:52:50;;;;;;;5.77;5.17;;;;;;;;;;4983312;28;20450;-92
2022/05/03 16:55:30;;;;;;;5.70;5.07;;;;;;;;;;4986053;28;20482;-94
2022/05/03 16:58:03;;;;;;;6.97;5.30;;;;;;;;;;4984378;28;20438;-93
2022/05/03 17:00:43;;;;;;;5.17;4.67;;;;;;;;;;4987891;28;20797;-93
2022/05/03 17:03:11;;;;;;;5.67;5.13;;;;;;;;;;4991421;28;20485;-93
2022/05/03 17:05:42;;;;;;;5.50;4.97;;;;;;;;;;4991547;28;20450;-93
2022/05/03 17:08:13;;;;;;;5.93;4.40;;;;;;;;;;5123738;23;20489;-94
2022/05/03 17:11:01;;;;;;;5.13;4.67;;;;;;;;;;5071565;28;20438;-94
2022/05/03 17:13:52;;;;;;;4.70;4.30;;;15.50;99.90;;;;;;5054126;28;20452;-93
2022/05/03 17:19:15;;;;;;;4.50;4.10;;;;;;;;;;5058560;28;20477;-87
2022/05/03 17:21:42;;;;;;;7.23;5.10;;;;;;;;;;5059651;28;20486;-89
2022/05/03 17:24:10;;;;;;;6.03;4.47;;;15.30;99.90;;;;;;5055856;28;20943;-88
2022/05/03 17:26:38;;;;;;;6.93;4.40;;;15.10;99.90;;;;;;5060397;28;20454;-90
2022/05/03 17:29:09;;;;;;;5.40;4.90;;;15.00;99.90;;;;;;5061323;28;20453;-91
2022/05/03 17:31:37;;;;;;;5.37;4.87;;;;;;;;;;5063014;28;20447;-89
2022/05/03 17:34:05;;;;;;;4.30;3.97;;;14.90;99.90;;;;;;5062764;28;20506;-93
2022/05/03 17:36:33;;;;;;;4.97;4.47;;;;;;;;;;5060843;28;20465;-91
2022/05/03 17:39:00;;;;;;;5.00;4.60;;;;;;;;;;5067451;28;20929;-90
2022/05/03 17:41:29;;;;;;;5.20;4.80;;;14.50;99.90;;;;;;5071578;28;20825;-88
2022/05/03 17:43:57;;;;;;;4.93;4.43;;;14.30;99.90;;;;;;5068534;28;20518;-89
2022/05/03 17:46:27;;;;;;;5.30;4.80;;;14.20;99.90;;;;;;5067481;28;20430;-90
2022/05/03 17:48:54;;;;;;;5.40;4.90;;;;;;;;;;5068271;28;20934;-93
2022/05/03 17:51:22;;;;;;;6.00;5.40;;;14.20;99.90;;;;;;5066132;28;20439;-87
2022/05/03 17:53:54;;;;;;;7.30;5.50;;;;;;;;;;5069029;28;20427;-94
2022/05/03 17:56:23;;;;;;;5.20;4.70;;;14.00;99.90;;;;;;5079428;22;20485;-90
2022/05/03 17:58:51;;;;;;;5.17;4.67;;;;;;;;;;5097605;22;20485;-88
2022/05/03 18:01:19;;;;;;;5.50;4.80;;;;;;;;;;5089694;28;20540;-88
2022/05/03 18:03:48;;;;;;;6.00;5.40;;;13.70;99.90;;;;;;5083641;28;20490;-88
2022/05/03 18:06:16;;;;;;;5.47;4.43;;;;;;;;;;5088900;28;20440;-88
2022/05/03 18:08:45;;;;;;;6.63;5.10;;;13.60;99.90;;;;;;5085804;28;20441;-87
2022/05/03 18:11:13;;;;;;;5.27;4.77;;;13.40;99.90;;;;;;5083620;28;20465;-87
2022/05/03 18:13:41;;;;;;;7.70;5.60;;;;;;;;;;5086689;28;20437;-88
2022/05/03 18:16:13;;;;;;;6.27;5.10;;;13.30;99.90;;;;;;5094068;28;20446;-89